sensor_id;sensor_type;location;lat;lon;timestamp;P1;durP1;ratioP1;P2;durP2;ratioP2
31450;SDS011;18070;52.474;13.304;2024-01-11T00:00:08;52.70;;;24.65;;
31450;SDS011;18070;52.474;13.304;2024-01-11T00:02:34;55.08;;;23.50;;
31450;SDS011;18070;52.474;13.304;2024-01-11T00:05:00;51.67;;;22.63;;
31450;SDS011;18070;52.474;13.304;2024-01-11T00:07:27;51.22;;;23.13;;
31450;SDS011;18070;52.474;13.304;2024-01-11T00:09:53;59.75;;;24.70;;
31450;SDS011;18070;52.474;13.304;2024-01-11T00:12:19;51.80;;;23.77;;
31450;SDS011;18070;52.474;13.304;2024-01-11T00:14:46;61.33;;;24.55;;
31450;SDS011;18070;52.474;13.304;2024-01-11T00:17:12;45.72;;;20.67;;
31450;SDS011;18070;52.474;13.304;2024-01-11T00:19:38;47.50;;;18.67;;
31450;SDS011;18070;52.474;13.304;2024-01-11T00:22:04;49.53;;;20.33;;
31450;SDS011;18070;52.474;13.304;2024-01-11T00:24:31;39.95;;;19.00;;
31450;SDS011;18070;52.474;13.304;2024-01-11T00:26:57;37.83;;;16.25;;
31450;SDS011;18070;52.474;13.304;2024-01-11T00:29:23;39.20;;;17.60;;
31450;SDS011;18070;52.474;13.304;2024-01-11T00:31:49;37.88;;;17.55;;
31450;SDS011;18070;52.474;13.304;2024-01-11T00:34:15;35.35;;;17.70;;
31450;SDS011;18070;52.474;13.304;2024-01-11T00:36:41;41.28;;;19.23;;
31450;SDS011;18070;52.474;13.304;2024-01-11T00:39:07;42.47;;;19.52;;
31450;SDS011;18070;52.474;13.304;2024-01-11T00:41:34;36.97;;;17.33;;
31450;SDS011;18070;52.474;13.304;2024-01-11T00:44:00;30.52;;;14.32;;
31450;SDS011;18070;52.474;13.304;2024-01-11T00:46:26;28.13;;;14.35;;
31450;SDS011;18070;52.474;13.304;2024-01-11T00:48:52;24.33;;;13.18;;
31450;SDS011;18070;52.474;13.304;2024-01-11T00:51:18;27.45;;;13.80;;
31450;SDS011;18070;52.474;13.304;2024-01-11T00:53:44;28.67;;;13.88;;
31450;SDS011;18070;52.474;13.304;2024-01-11T00:56:19;27.33;;;13.25;;
31450;SDS011;18070;52.474;13.304;2024-01-11T00:58:45;26.60;;;14.07;;
31450;SDS011;18070;52.474;13.304;2024-01-11T01:01:12;29.13;;;13.82;;
31450;SDS011;18070;52.474;13.304;2024-01-11T01:03:38;31.52;;;14.38;;
31450;SDS011;18070;52.474;13.304;2024-01-11T01:06:05;32.05;;;14.85;;
31450;SDS011;18070;52.474;13.304;2024-01-11T01:08:31;32.10;;;14.88;;
31450;SDS011;18070;52.474;13.304;2024-01-11T01:10:57;35.83;;;16.67;;
31450;SDS011;18070;52.474;13.304;2024-01-11T01:13:23;37.75;;;16.80;;
31450;SDS011;18070;52.474;13.304;2024-01-11T01:15:49;41.05;;;18.10;;
31450;SDS011;18070;52.474;13.304;2024-01-11T01:18:15;42.97;;;18.75;;
31450;SDS011;18070;52.474;13.304;2024-01-11T01:20:41;44.85;;;20.17;;
31450;SDS011;18070;52.474;13.304;2024-01-11T01:23:08;41.03;;;20.40;;
31450;SDS011;18070;52.474;13.304;2024-01-11T01:25:34;38.33;;;18.85;;
31450;SDS011;18070;52.474;13.304;2024-01-11T01:28:00;34.75;;;18.55;;
31450;SDS011;18070;52.474;13.304;2024-01-11T01:30:29;38.00;;;18.90;;
31450;SDS011;18070;52.474;13.304;2024-01-11T01:32:55;37.40;;;19.40;;
31450;SDS011;18070;52.474;13.304;2024-01-11T01:35:21;39.90;;;19.83;;
31450;SDS011;18070;52.474;13.304;2024-01-11T01:37:47;36.45;;;16.27;;
31450;SDS011;18070;52.474;13.304;2024-01-11T01:40:14;35.63;;;18.65;;
31450;SDS011;18070;52.474;13.304;2024-01-11T01:42:43;34.83;;;16.85;;
31450;SDS011;18070;52.474;13.304;2024-01-11T01:45:10;40.33;;;18.50;;
31450;SDS011;18070;52.474;13.304;2024-01-11T01:47:40;33.53;;;18.73;;
31450;SDS011;18070;52.474;13.304;2024-01-11T01:50:07;38.42;;;21.33;;
31450;SDS011;18070;52.474;13.304;2024-01-11T01:52:33;40.85;;;19.55;;
31450;SDS011;18070;52.474;13.304;2024-01-11T01:55:01;36.97;;;19.08;;
31450;SDS011;18070;52.474;13.304;2024-01-11T01:57:27;33.72;;;17.75;;
31450;SDS011;18070;52.474;13.304;2024-01-11T01:59:54;34.05;;;17.52;;
31450;SDS011;18070;52.474;13.304;2024-01-11T02:02:20;30.08;;;17.42;;
31450;SDS011;18070;52.474;13.304;2024-01-11T02:04:47;35.80;;;20.05;;
31450;SDS011;18070;52.474;13.304;2024-01-11T02:07:13;35.65;;;21.52;;
31450;SDS011;18070;52.474;13.304;2024-01-11T02:09:42;34.17;;;19.88;;
31450;SDS011;18070;52.474;13.304;2024-01-11T02:12:08;40.83;;;19.67;;
31450;SDS011;18070;52.474;13.304;2024-01-11T02:14:38;32.80;;;16.27;;
31450;SDS011;18070;52.474;13.304;2024-01-11T02:17:05;36.10;;;18.08;;
31450;SDS011;18070;52.474;13.304;2024-01-11T02:19:31;33.83;;;17.45;;
31450;SDS011;18070;52.474;13.304;2024-01-11T02:22:00;34.20;;;19.77;;
31450;SDS011;18070;52.474;13.304;2024-01-11T02:24:28;29.95;;;17.77;;
31450;SDS011;18070;52.474;13.304;2024-01-11T02:27:00;30.23;;;18.90;;
31450;SDS011;18070;52.474;13.304;2024-01-11T02:29:26;32.15;;;19.38;;
31450;SDS011;18070;52.474;13.304;2024-01-11T02:31:53;28.75;;;14.45;;
31450;SDS011;18070;52.474;13.304;2024-01-11T02:34:19;28.65;;;14.93;;
31450;SDS011;18070;52.474;13.304;2024-01-11T02:36:46;29.70;;;18.17;;
31450;SDS011;18070;52.474;13.304;2024-01-11T02:39:13;28.10;;;12.90;;
31450;SDS011;18070;52.474;13.304;2024-01-11T02:41:39;24.38;;;12.20;;
31450;SDS011;18070;52.474;13.304;2024-01-11T02:44:06;25.13;;;12.55;;
31450;SDS011;18070;52.474;13.304;2024-01-11T02:46:32;22.10;;;11.80;;
31450;SDS011;18070;52.474;13.304;2024-01-11T02:48:58;23.48;;;12.35;;
31450;SDS011;18070;52.474;13.304;2024-01-11T02:51:24;28.20;;;14.18;;
31450;SDS011;18070;52.474;13.304;2024-01-11T02:53:50;34.33;;;14.82;;
31450;SDS011;18070;52.474;13.304;2024-01-11T02:56:16;28.52;;;13.77;;
31450;SDS011;18070;52.474;13.304;2024-01-11T02:58:42;27.10;;;14.68;;
31450;SDS011;18070;52.474;13.304;2024-01-11T03:01:08;26.33;;;13.90;;
31450;SDS011;18070;52.474;13.304;2024-01-11T03:03:34;26.15;;;14.00;;
31450;SDS011;18070;52.474;13.304;2024-01-11T03:06:00;25.17;;;13.10;;
31450;SDS011;18070;52.474;13.304;2024-01-11T03:08:26;25.75;;;13.95;;
31450;SDS011;18070;52.474;13.304;2024-01-11T03:10:52;21.38;;;11.43;;
31450;SDS011;18070;52.474;13.304;2024-01-11T03:13:18;24.30;;;11.43;;
31450;SDS011;18070;52.474;13.304;2024-01-11T03:15:44;22.00;;;12.57;;
31450;SDS011;18070;52.474;13.304;2024-01-11T03:18:10;29.20;;;13.48;;
31450;SDS011;18070;52.474;13.304;2024-01-11T03:20:36;27.40;;;13.50;;
31450;SDS011;18070;52.474;13.304;2024-01-11T03:23:02;28.00;;;14.27;;
31450;SDS011;18070;52.474;13.304;2024-01-11T03:25:29;28.80;;;14.30;;
31450;SDS011;18070;52.474;13.304;2024-01-11T03:27:55;27.83;;;13.70;;
31450;SDS011;18070;52.474;13.304;2024-01-11T03:30:21;26.58;;;12.75;;
31450;SDS011;18070;52.474;13.304;2024-01-11T03:32:47;26.02;;;12.88;;
31450;SDS011;18070;52.474;13.304;2024-01-11T03:35:13;26.13;;;12.77;;
31450;SDS011;18070;52.474;13.304;2024-01-11T03:37:39;21.90;;;11.68;;
31450;SDS011;18070;52.474;13.304;2024-01-11T03:40:05;24.02;;;11.70;;
31450;SDS011;18070;52.474;13.304;2024-01-11T03:42:32;27.55;;;12.55;;
31450;SDS011;18070;52.474;13.304;2024-01-11T03:44:58;25.08;;;12.55;;
31450;SDS011;18070;52.474;13.304;2024-01-11T03:47:24;27.85;;;12.80;;
31450;SDS011;18070;52.474;13.304;2024-01-11T03:49:50;25.67;;;13.38;;
31450;SDS011;18070;52.474;13.304;2024-01-11T03:52:16;27.90;;;13.05;;
31450;SDS011;18070;52.474;13.304;2024-01-11T03:54:42;22.20;;;11.82;;
31450;SDS011;18070;52.474;13.304;2024-01-11T03:57:08;25.35;;;13.48;;
31450;SDS011;18070;52.474;13.304;2024-01-11T03:59:34;25.88;;;14.93;;
31450;SDS011;18070;52.474;13.304;2024-01-11T04:02:00;20.80;;;11.55;;
31450;SDS011;18070;52.474;13.304;2024-01-11T04:04:26;22.25;;;11.38;;
31450;SDS011;18070;52.474;13.304;2024-01-11T04:06:52;24.50;;;14.75;;
31450;SDS011;18070;52.474;13.304;2024-01-11T04:09:18;24.75;;;14.98;;
31450;SDS011;18070;52.474;13.304;2024-01-11T04:11:45;25.48;;;14.27;;
31450;SDS011;18070;52.474;13.304;2024-01-11T04:14:11;25.55;;;16.35;;
31450;SDS011;18070;52.474;13.304;2024-01-11T04:16:43;23.83;;;14.48;;
31450;SDS011;18070;52.474;13.304;2024-01-11T04:19:10;26.08;;;14.88;;
31450;SDS011;18070;52.474;13.304;2024-01-11T04:21:36;33.13;;;14.85;;
31450;SDS011;18070;52.474;13.304;2024-01-11T04:24:04;24.50;;;12.77;;
31450;SDS011;18070;52.474;13.304;2024-01-11T04:26:31;27.83;;;16.08;;
31450;SDS011;18070;52.474;13.304;2024-01-11T04:28:57;32.25;;;15.57;;
31450;SDS011;18070;52.474;13.304;2024-01-11T04:31:24;30.38;;;16.15;;
31450;SDS011;18070;52.474;13.304;2024-01-11T04:33:50;29.52;;;17.63;;
31450;SDS011;18070;52.474;13.304;2024-01-11T04:36:17;28.85;;;16.50;;
31450;SDS011;18070;52.474;13.304;2024-01-11T04:38:43;30.25;;;14.95;;
31450;SDS011;18070;52.474;13.304;2024-01-11T04:43:37;31.15;;;20.85;;
31450;SDS011;18070;52.474;13.304;2024-01-11T04:46:03;29.45;;;12.90;;
31450;SDS011;18070;52.474;13.304;2024-01-11T04:48:29;38.92;;;25.95;;
31450;SDS011;18070;52.474;13.304;2024-01-11T04:50:55;34.80;;;23.30;;
31450;SDS011;18070;52.474;13.304;2024-01-11T04:53:22;35.15;;;29.30;;
31450;SDS011;18070;52.474;13.304;2024-01-11T04:55:48;36.75;;;30.38;;
31450;SDS011;18070;52.474;13.304;2024-01-11T04:58:14;30.13;;;17.88;;
31450;SDS011;18070;52.474;13.304;2024-01-11T05:00:40;29.85;;;21.73;;
31450;SDS011;18070;52.474;13.304;2024-01-11T05:03:06;39.78;;;25.73;;
31450;SDS011;18070;52.474;13.304;2024-01-11T05:05:32;47.10;;;26.52;;
31450;SDS011;18070;52.474;13.304;2024-01-11T05:07:58;33.70;;;25.27;;
31450;SDS011;18070;52.474;13.304;2024-01-11T05:10:24;35.95;;;22.88;;
31450;SDS011;18070;52.474;13.304;2024-01-11T05:12:50;39.25;;;24.20;;
31450;SDS011;18070;52.474;13.304;2024-01-11T05:15:16;29.83;;;22.60;;
31450;SDS011;18070;52.474;13.304;2024-01-11T05:17:42;31.23;;;22.63;;
31450;SDS011;18070;52.474;13.304;2024-01-11T05:20:08;30.10;;;18.42;;
31450;SDS011;18070;52.474;13.304;2024-01-11T05:22:35;31.90;;;23.25;;
31450;SDS011;18070;52.474;13.304;2024-01-11T05:25:01;42.55;;;24.77;;
31450;SDS011;18070;52.474;13.304;2024-01-11T05:27:27;31.90;;;17.15;;
31450;SDS011;18070;52.474;13.304;2024-01-11T05:29:53;28.20;;;13.38;;
31450;SDS011;18070;52.474;13.304;2024-01-11T05:32:20;29.30;;;10.55;;
31450;SDS011;18070;52.474;13.304;2024-01-11T05:34:46;43.28;;;26.85;;
31450;SDS011;18070;52.474;13.304;2024-01-11T05:37:12;31.77;;;11.98;;
31450;SDS011;18070;52.474;13.304;2024-01-11T05:39:38;36.70;;;26.08;;
31450;SDS011;18070;52.474;13.304;2024-01-11T05:42:04;36.22;;;10.38;;
31450;SDS011;18070;52.474;13.304;2024-01-11T05:44:31;29.65;;;10.80;;
31450;SDS011;18070;52.474;13.304;2024-01-11T05:46:57;32.95;;;11.05;;
31450;SDS011;18070;52.474;13.304;2024-01-11T05:49:23;29.95;;;13.40;;
31450;SDS011;18070;52.474;13.304;2024-01-11T05:51:49;29.48;;;11.00;;
31450;SDS011;18070;52.474;13.304;2024-01-11T05:54:15;27.02;;;10.63;;
31450;SDS011;18070;52.474;13.304;2024-01-11T05:56:41;23.52;;;9.45;;
31450;SDS011;18070;52.474;13.304;2024-01-11T05:59:07;31.60;;;10.85;;
31450;SDS011;18070;52.474;13.304;2024-01-11T06:01:33;33.58;;;11.52;;
31450;SDS011;18070;52.474;13.304;2024-01-11T06:03:59;29.33;;;11.55;;
31450;SDS011;18070;52.474;13.304;2024-01-11T06:06:25;32.25;;;11.18;;
31450;SDS011;18070;52.474;13.304;2024-01-11T06:08:51;33.13;;;11.75;;
31450;SDS011;18070;52.474;13.304;2024-01-11T06:11:17;36.88;;;11.70;;
31450;SDS011;18070;52.474;13.304;2024-01-11T06:13:43;29.63;;;10.43;;
31450;SDS011;18070;52.474;13.304;2024-01-11T06:16:09;31.63;;;12.30;;
31450;SDS011;18070;52.474;13.304;2024-01-11T06:18:35;35.15;;;13.13;;
31450;SDS011;18070;52.474;13.304;2024-01-11T06:21:01;32.70;;;11.95;;
31450;SDS011;18070;52.474;13.304;2024-01-11T06:23:27;36.75;;;12.25;;
31450;SDS011;18070;52.474;13.304;2024-01-11T06:25:53;34.15;;;12.88;;
31450;SDS011;18070;52.474;13.304;2024-01-11T06:28:20;38.00;;;11.82;;
31450;SDS011;18070;52.474;13.304;2024-01-11T06:30:46;35.50;;;12.48;;
31450;SDS011;18070;52.474;13.304;2024-01-11T06:33:12;39.20;;;13.23;;
31450;SDS011;18070;52.474;13.304;2024-01-11T06:35:38;41.00;;;16.00;;
31450;SDS011;18070;52.474;13.304;2024-01-11T06:38:05;38.53;;;14.23;;
31450;SDS011;18070;52.474;13.304;2024-01-11T06:40:31;38.47;;;16.45;;
31450;SDS011;18070;52.474;13.304;2024-01-11T06:42:57;38.30;;;13.07;;
31450;SDS011;18070;52.474;13.304;2024-01-11T06:45:23;37.33;;;14.07;;
31450;SDS011;18070;52.474;13.304;2024-01-11T06:47:49;42.75;;;13.45;;
31450;SDS011;18070;52.474;13.304;2024-01-11T06:50:15;42.35;;;13.38;;
31450;SDS011;18070;52.474;13.304;2024-01-11T06:52:41;38.72;;;15.57;;
31450;SDS011;18070;52.474;13.304;2024-01-11T06:55:08;34.05;;;14.82;;
31450;SDS011;18070;52.474;13.304;2024-01-11T06:57:34;39.03;;;13.93;;
31450;SDS011;18070;52.474;13.304;2024-01-11T07:00:00;38.42;;;13.25;;
31450;SDS011;18070;52.474;13.304;2024-01-11T07:02:27;40.03;;;13.88;;
31450;SDS011;18070;52.474;13.304;2024-01-11T07:04:53;43.00;;;13.02;;
31450;SDS011;18070;52.474;13.304;2024-01-11T07:07:19;43.08;;;15.23;;
31450;SDS011;18070;52.474;13.304;2024-01-11T07:09:45;37.42;;;14.52;;
31450;SDS011;18070;52.474;13.304;2024-01-11T07:12:11;46.25;;;20.00;;
31450;SDS011;18070;52.474;13.304;2024-01-11T07:14:37;41.22;;;14.68;;
31450;SDS011;18070;52.474;13.304;2024-01-11T07:17:03;35.97;;;13.32;;
31450;SDS011;18070;52.474;13.304;2024-01-11T07:19:29;37.00;;;13.43;;
31450;SDS011;18070;52.474;13.304;2024-01-11T07:21:55;42.05;;;14.68;;
31450;SDS011;18070;52.474;13.304;2024-01-11T07:24:21;42.33;;;15.95;;
31450;SDS011;18070;52.474;13.304;2024-01-11T07:26:47;46.65;;;15.20;;
31450;SDS011;18070;52.474;13.304;2024-01-11T07:29:13;49.92;;;18.90;;
31450;SDS011;18070;52.474;13.304;2024-01-11T07:31:39;45.72;;;16.77;;
31450;SDS011;18070;52.474;13.304;2024-01-11T07:34:06;40.75;;;15.10;;
31450;SDS011;18070;52.474;13.304;2024-01-11T07:36:32;43.50;;;15.48;;
31450;SDS011;18070;52.474;13.304;2024-01-11T07:38:58;46.22;;;15.82;;
31450;SDS011;18070;52.474;13.304;2024-01-11T07:41:24;47.50;;;18.42;;
31450;SDS011;18070;52.474;13.304;2024-01-11T07:43:50;50.17;;;17.00;;
31450;SDS011;18070;52.474;13.304;2024-01-11T07:46:16;44.50;;;17.38;;
31450;SDS011;18070;52.474;13.304;2024-01-11T07:48:42;60.92;;;28.60;;
31450;SDS011;18070;52.474;13.304;2024-01-11T07:51:08;49.17;;;20.95;;
31450;SDS011;18070;52.474;13.304;2024-01-11T07:53:34;44.58;;;18.13;;
31450;SDS011;18070;52.474;13.304;2024-01-11T07:56:00;50.55;;;16.92;;
31450;SDS011;18070;52.474;13.304;2024-01-11T07:58:26;40.60;;;16.02;;
31450;SDS011;18070;52.474;13.304;2024-01-11T08:00:52;50.40;;;18.35;;
31450;SDS011;18070;52.474;13.304;2024-01-11T08:03:19;43.97;;;17.55;;
31450;SDS011;18070;52.474;13.304;2024-01-11T08:05:45;45.08;;;17.75;;
31450;SDS011;18070;52.474;13.304;2024-01-11T08:08:11;43.13;;;16.88;;
31450;SDS011;18070;52.474;13.304;2024-01-11T08:10:37;47.78;;;17.70;;
31450;SDS011;18070;52.474;13.304;2024-01-11T08:13:03;49.15;;;18.42;;
31450;SDS011;18070;52.474;13.304;2024-01-11T08:15:29;44.20;;;16.08;;
31450;SDS011;18070;52.474;13.304;2024-01-11T08:17:55;47.97;;;16.80;;
31450;SDS011;18070;52.474;13.304;2024-01-11T08:20:21;45.50;;;16.52;;
31450;SDS011;18070;52.474;13.304;2024-01-11T08:22:47;45.45;;;18.50;;
31450;SDS011;18070;52.474;13.304;2024-01-11T08:25:14;45.25;;;19.38;;
31450;SDS011;18070;52.474;13.304;2024-01-11T08:27:40;44.55;;;16.80;;
31450;SDS011;18070;52.474;13.304;2024-01-11T08:30:06;45.17;;;16.70;;
31450;SDS011;18070;52.474;13.304;2024-01-11T08:32:33;47.38;;;21.40;;
31450;SDS011;18070;52.474;13.304;2024-01-11T08:35:05;48.15;;;18.83;;
31450;SDS011;18070;52.474;13.304;2024-01-11T08:37:31;46.20;;;16.52;;
31450;SDS011;18070;52.474;13.304;2024-01-11T08:39:58;51.13;;;20.73;;
31450;SDS011;18070;52.474;13.304;2024-01-11T08:42:24;49.03;;;20.27;;
31450;SDS011;18070;52.474;13.304;2024-01-11T08:44:50;45.40;;;19.33;;
31450;SDS011;18070;52.474;13.304;2024-01-11T08:47:17;51.15;;;18.60;;
31450;SDS011;18070;52.474;13.304;2024-01-11T08:49:43;45.10;;;18.88;;
31450;SDS011;18070;52.474;13.304;2024-01-11T08:52:09;49.13;;;20.67;;
31450;SDS011;18070;52.474;13.304;2024-01-11T08:54:35;42.72;;;16.90;;
31450;SDS011;18070;52.474;13.304;2024-01-11T08:57:01;45.60;;;20.67;;
31450;SDS011;18070;52.474;13.304;2024-01-11T08:59:28;46.88;;;19.42;;
31450;SDS011;18070;52.474;13.304;2024-01-11T09:01:54;45.35;;;22.02;;
31450;SDS011;18070;52.474;13.304;2024-01-11T09:04:20;56.20;;;21.02;;
31450;SDS011;18070;52.474;13.304;2024-01-11T09:06:46;47.40;;;20.60;;
31450;SDS011;18070;52.474;13.304;2024-01-11T09:09:12;47.05;;;18.08;;
31450;SDS011;18070;52.474;13.304;2024-01-11T09:11:39;46.80;;;18.65;;
31450;SDS011;18070;52.474;13.304;2024-01-11T09:14:08;47.55;;;22.58;;
31450;SDS011;18070;52.474;13.304;2024-01-11T09:16:38;43.53;;;20.67;;
31450;SDS011;18070;52.474;13.304;2024-01-11T09:19:05;45.00;;;17.10;;
31450;SDS011;18070;52.474;13.304;2024-01-11T09:21:31;45.13;;;18.08;;
31450;SDS011;18070;52.474;13.304;2024-01-11T09:23:57;49.10;;;20.25;;
31450;SDS011;18070;52.474;13.304;2024-01-11T09:26:23;48.65;;;19.17;;
31450;SDS011;18070;52.474;13.304;2024-01-11T09:28:50;44.42;;;18.40;;
31450;SDS011;18070;52.474;13.304;2024-01-11T09:31:16;43.40;;;19.55;;
31450;SDS011;18070;52.474;13.304;2024-01-11T09:33:42;49.08;;;19.75;;
31450;SDS011;18070;52.474;13.304;2024-01-11T09:36:10;51.60;;;18.60;;
31450;SDS011;18070;52.474;13.304;2024-01-11T09:38:36;49.45;;;21.65;;
31450;SDS011;18070;52.474;13.304;2024-01-11T09:41:10;49.20;;;20.73;;
31450;SDS011;18070;52.474;13.304;2024-01-11T09:43:37;52.05;;;18.60;;
31450;SDS011;18070;52.474;13.304;2024-01-11T09:46:03;55.28;;;23.45;;
31450;SDS011;18070;52.474;13.304;2024-01-11T09:48:33;51.17;;;20.45;;
31450;SDS011;18070;52.474;13.304;2024-01-11T09:51:01;54.90;;;23.05;;
31450;SDS011;18070;52.474;13.304;2024-01-11T09:53:28;49.45;;;19.65;;
31450;SDS011;18070;52.474;13.304;2024-01-11T09:55:54;45.75;;;19.98;;
31450;SDS011;18070;52.474;13.304;2024-01-11T09:58:21;48.83;;;18.75;;
31450;SDS011;18070;52.474;13.304;2024-01-11T10:00:49;49.55;;;19.65;;
31450;SDS011;18070;52.474;13.304;2024-01-11T10:03:16;54.97;;;21.20;;
31450;SDS011;18070;52.474;13.304;2024-01-11T10:05:43;53.60;;;21.75;;
31450;SDS011;18070;52.474;13.304;2024-01-11T10:08:10;53.15;;;23.52;;
31450;SDS011;18070;52.474;13.304;2024-01-11T10:10:36;56.17;;;20.05;;
31450;SDS011;18070;52.474;13.304;2024-01-11T10:13:02;48.63;;;19.88;;
31450;SDS011;18070;52.474;13.304;2024-01-11T10:15:28;51.72;;;21.30;;
31450;SDS011;18070;52.474;13.304;2024-01-11T10:17:54;52.83;;;21.17;;
31450;SDS011;18070;52.474;13.304;2024-01-11T10:20:21;50.50;;;21.77;;
31450;SDS011;18070;52.474;13.304;2024-01-11T10:22:48;53.38;;;23.27;;
31450;SDS011;18070;52.474;13.304;2024-01-11T10:25:16;53.40;;;20.55;;
31450;SDS011;18070;52.474;13.304;2024-01-11T10:27:43;57.17;;;21.38;;
31450;SDS011;18070;52.474;13.304;2024-01-11T10:30:12;57.13;;;21.88;;
31450;SDS011;18070;52.474;13.304;2024-01-11T10:32:40;57.17;;;22.40;;
31450;SDS011;18070;52.474;13.304;2024-01-11T10:35:06;52.15;;;20.08;;
31450;SDS011;18070;52.474;13.304;2024-01-11T10:37:33;52.72;;;21.08;;
31450;SDS011;18070;52.474;13.304;2024-01-11T10:40:01;44.85;;;19.33;;
31450;SDS011;18070;52.474;13.304;2024-01-11T10:42:29;58.75;;;21.88;;
31450;SDS011;18070;52.474;13.304;2024-01-11T10:44:56;58.67;;;19.83;;
31450;SDS011;18070;52.474;13.304;2024-01-11T10:47:24;50.72;;;18.88;;
31450;SDS011;18070;52.474;13.304;2024-01-11T10:49:53;55.03;;;19.52;;
31450;SDS011;18070;52.474;13.304;2024-01-11T10:52:22;65.25;;;25.63;;
31450;SDS011;18070;52.474;13.304;2024-01-11T10:54:50;48.10;;;20.27;;
31450;SDS011;18070;52.474;13.304;2024-01-11T10:57:17;59.63;;;21.52;;
31450;SDS011;18070;52.474;13.304;2024-01-11T10:59:43;55.70;;;22.15;;
31450;SDS011;18070;52.474;13.304;2024-01-11T11:02:10;51.28;;;20.63;;
31450;SDS011;18070;52.474;13.304;2024-01-11T11:04:37;62.05;;;21.80;;
31450;SDS011;18070;52.474;13.304;2024-01-11T11:07:04;63.35;;;23.27;;
31450;SDS011;18070;52.474;13.304;2024-01-11T11:09:32;61.58;;;23.40;;
31450;SDS011;18070;52.474;13.304;2024-01-11T11:11:58;54.60;;;24.10;;
31450;SDS011;18070;52.474;13.304;2024-01-11T11:14:24;62.97;;;24.58;;
31450;SDS011;18070;52.474;13.304;2024-01-11T11:16:51;60.22;;;22.50;;
31450;SDS011;18070;52.474;13.304;2024-01-11T11:19:19;60.92;;;22.40;;
31450;SDS011;18070;52.474;13.304;2024-01-11T11:21:47;56.38;;;22.98;;
31450;SDS011;18070;52.474;13.304;2024-01-11T11:24:13;64.88;;;23.83;;
31450;SDS011;18070;52.474;13.304;2024-01-11T11:26:39;60.13;;;23.42;;
31450;SDS011;18070;52.474;13.304;2024-01-11T11:29:06;57.60;;;25.40;;
31450;SDS011;18070;52.474;13.304;2024-01-11T11:34:01;57.03;;;23.60;;
31450;SDS011;18070;52.474;13.304;2024-01-11T11:36:28;55.53;;;25.75;;
31450;SDS011;18070;52.474;13.304;2024-01-11T11:38:55;62.30;;;27.58;;
31450;SDS011;18070;52.474;13.304;2024-01-11T11:41:25;55.00;;;23.02;;
31450;SDS011;18070;52.474;13.304;2024-01-11T11:43:51;61.05;;;23.30;;
31450;SDS011;18070;52.474;13.304;2024-01-11T11:46:18;59.45;;;24.75;;
31450;SDS011;18070;52.474;13.304;2024-01-11T11:48:48;57.63;;;22.40;;
31450;SDS011;18070;52.474;13.304;2024-01-11T11:51:16;57.63;;;22.52;;
31450;SDS011;18070;52.474;13.304;2024-01-11T11:53:43;48.35;;;21.45;;
31450;SDS011;18070;52.474;13.304;2024-01-11T11:56:10;61.90;;;24.58;;
31450;SDS011;18070;52.474;13.304;2024-01-11T11:58:37;59.90;;;23.95;;
31450;SDS011;18070;52.474;13.304;2024-01-11T12:01:04;58.75;;;23.63;;
31450;SDS011;18070;52.474;13.304;2024-01-11T12:03:30;58.30;;;23.33;;
31450;SDS011;18070;52.474;13.304;2024-01-11T12:05:57;54.95;;;24.25;;
31450;SDS011;18070;52.474;13.304;2024-01-11T12:08:23;54.03;;;40.85;;
31450;SDS011;18070;52.474;13.304;2024-01-11T12:10:50;90.97;;;81.50;;
31450;SDS011;18070;52.474;13.304;2024-01-11T12:13:17;60.97;;;43.35;;
31450;SDS011;18070;52.474;13.304;2024-01-11T12:15:43;73.30;;;62.17;;
31450;SDS011;18070;52.474;13.304;2024-01-11T12:18:09;78.78;;;70.47;;
31450;SDS011;18070;52.474;13.304;2024-01-11T12:20:35;68.97;;;55.67;;
31450;SDS011;18070;52.474;13.304;2024-01-11T12:23:02;71.80;;;56.67;;
31450;SDS011;18070;52.474;13.304;2024-01-11T12:25:28;93.03;;;83.68;;
31450;SDS011;18070;52.474;13.304;2024-01-11T12:27:54;84.10;;;75.45;;
31450;SDS011;18070;52.474;13.304;2024-01-11T12:30:24;95.65;;;86.40;;
31450;SDS011;18070;52.474;13.304;2024-01-11T12:32:50;89.95;;;80.82;;
31450;SDS011;18070;52.474;13.304;2024-01-11T12:35:16;67.82;;;49.70;;
31450;SDS011;18070;52.474;13.304;2024-01-11T12:37:55;62.38;;;47.30;;
31450;SDS011;18070;52.474;13.304;2024-01-11T12:40:21;64.78;;;42.58;;
31450;SDS011;18070;52.474;13.304;2024-01-11T12:42:48;71.57;;;47.65;;
31450;SDS011;18070;52.474;13.304;2024-01-11T12:45:15;64.47;;;45.92;;
31450;SDS011;18070;52.474;13.304;2024-01-11T12:47:41;68.18;;;44.38;;
31450;SDS011;18070;52.474;13.304;2024-01-11T12:50:07;64.43;;;39.92;;
31450;SDS011;18070;52.474;13.304;2024-01-11T12:52:33;74.55;;;59.95;;
31450;SDS011;18070;52.474;13.304;2024-01-11T12:54:59;101.97;;;92.15;;
31450;SDS011;18070;52.474;13.304;2024-01-11T12:57:25;75.68;;;66.22;;
31450;SDS011;18070;52.474;13.304;2024-01-11T12:59:52;118.40;;;106.88;;
31450;SDS011;18070;52.474;13.304;2024-01-11T13:02:18;94.78;;;85.47;;
31450;SDS011;18070;52.474;13.304;2024-01-11T13:04:45;69.63;;;53.75;;
31450;SDS011;18070;52.474;13.304;2024-01-11T13:07:11;73.45;;;62.17;;
31450;SDS011;18070;52.474;13.304;2024-01-11T13:09:38;96.00;;;87.07;;
31450;SDS011;18070;52.474;13.304;2024-01-11T13:12:04;104.03;;;94.65;;
31450;SDS011;18070;52.474;13.304;2024-01-11T13:14:30;100.68;;;90.90;;
31450;SDS011;18070;52.474;13.304;2024-01-11T13:16:57;97.43;;;87.97;;
31450;SDS011;18070;52.474;13.304;2024-01-11T13:19:23;92.28;;;83.15;;
31450;SDS011;18070;52.474;13.304;2024-01-11T13:21:49;125.22;;;114.70;;
31450;SDS011;18070;52.474;13.304;2024-01-11T13:24:15;111.15;;;101.38;;
31450;SDS011;18070;52.474;13.304;2024-01-11T13:26:41;127.65;;;117.30;;
31450;SDS011;18070;52.474;13.304;2024-01-11T13:29:07;113.53;;;103.80;;
31450;SDS011;18070;52.474;13.304;2024-01-11T13:31:33;115.47;;;105.25;;
31450;SDS011;18070;52.474;13.304;2024-01-11T13:33:59;124.20;;;114.20;;
31450;SDS011;18070;52.474;13.304;2024-01-11T13:36:25;116.30;;;106.78;;
31450;SDS011;18070;52.474;13.304;2024-01-11T13:38:51;127.43;;;117.45;;
31450;SDS011;18070;52.474;13.304;2024-01-11T13:41:18;116.97;;;107.82;;
31450;SDS011;18070;52.474;13.304;2024-01-11T13:43:44;119.47;;;110.15;;
31450;SDS011;18070;52.474;13.304;2024-01-11T13:46:10;61.10;;;47.38;;
31450;SDS011;18070;52.474;13.304;2024-01-11T13:48:38;62.63;;;46.92;;
31450;SDS011;18070;52.474;13.304;2024-01-11T13:51:04;73.57;;;66.00;;
31450;SDS011;18070;52.474;13.304;2024-01-11T13:53:30;82.65;;;74.25;;
31450;SDS011;18070;52.474;13.304;2024-01-11T13:55:56;91.25;;;82.75;;
31450;SDS011;18070;52.474;13.304;2024-01-11T13:58:22;70.82;;;63.67;;
31450;SDS011;18070;52.474;13.304;2024-01-11T14:00:49;94.20;;;85.47;;
31450;SDS011;18070;52.474;13.304;2024-01-11T14:03:15;57.80;;;42.85;;
31450;SDS011;18070;52.474;13.304;2024-01-11T14:05:41;68.88;;;60.30;;
31450;SDS011;18070;52.474;13.304;2024-01-11T14:08:07;90.93;;;81.85;;